Time;durP1;ratioP1;P1;durP2;ratioP2;P2;SDS_P1;SDS_P2;PMS_P1;PMS_P2;Temp;Humidity;BMP_temperature;BMP_pressure;BME280_temperature;BME280_humidity;BME280_pressure;Samples;Min_cycle;Max_cycle;Signal;HPM_P1;HPM_P2
2023/01/02 00:01:40;;;;;;;;;;;10.90;99.90;;;;;;5141077;27;19912;-41
2023/01/02 00:04:06;;;;;;;;;;;10.90;99.90;;;;;;5123898;27;19915;-41
2023/01/02 00:06:33;;;;;;;;;;;10.90;99.90;;;;;;5114073;28;20284;-40
2023/01/02 00:08:58;;;;;;;;;;;10.90;99.90;;;;;;5113386;28;20404;-41
2023/01/02 00:11:23;;;;;;;;;;;10.90;99.90;;;;;;5118673;27;19943;-40
2023/01/02 00:13:49;;;;;;;;;;;10.90;99.90;;;;;;5155272;27;19911;-41
2023/01/02 00:16:14;;;;;;;;;;;10.90;99.90;;;;;;5144812;27;19914;-41
2023/01/02 00:18:40;;;;;;;;;;;10.90;99.90;;;;;;5134218;27;19911;-40
2023/01/02 00:21:05;;;;;;;;;;;10.90;99.90;;;;;;5134309;27;19933;-40
2023/01/02 00:23:31;;;;;;;;;;;10.90;99.90;;;;;;5133372;27;19908;-40
2023/01/02 00:25:56;;;;;;;;;;;10.90;99.90;;;;;;5139019;27;20385;-40
2023/01/02 00:28:22;;;;;;;;;;;10.90;99.90;;;;;;5155163;27;19937;-40
2023/01/02 00:30:47;;;;;;;;;;;10.90;99.90;;;;;;5139878;27;19915;-40
2023/01/02 00:33:13;;;;;;;;;;;10.90;99.90;;;;;;5134126;27;19949;-41
2023/01/02 00:35:39;;;;;;;;;;;10.90;99.90;;;;;;5134000;27;19915;-41
2023/01/02 00:38:05;;;;;;;;;;;10.90;99.90;;;;;;5133351;27;19915;-41
2023/01/02 00:40:30;;;;;;;;;;;10.90;99.90;;;;;;5134017;27;19908;-41
2023/01/02 00:42:56;;;;;;;;;;;11.00;99.90;;;;;;5132056;27;19918;-41
2023/01/02 00:45:21;;;;;;;;;;;11.00;99.90;;;;;;5131380;27;20378;-41
2023/01/02 00:47:46;;;;;;;;;;;11.00;99.90;;;;;;5112659;28;20107;-41
2023/01/02 00:50:12;;;;;;;;;;;11.00;99.90;;;;;;5107598;28;19914;-40
2023/01/02 00:52:37;;;;;;;;;;;11.00;99.90;;;;;;5132994;27;19972;-41
2023/01/02 00:55:03;;;;;;;;;;;11.00;99.90;;;;;;5133629;27;19907;-41
2023/01/02 00:57:29;;;;;;;;;;;11.00;99.90;;;;;;5151125;27;20014;-40
2023/01/02 00:59:55;;;;;;;;;;;11.00;99.90;;;;;;5154510;27;20001;-40
2023/01/02 01:02:20;;;;;;;;;;;11.00;99.90;;;;;;5154411;27;19907;-41
2023/01/02 01:04:46;;;;;;;;;;;11.00;99.90;;;;;;5147962;27;19920;-40
2023/01/02 01:07:11;;;;;;;;;;;11.10;99.90;;;;;;5133645;28;20285;-41
2023/01/02 01:09:37;;;;;;;;;;;11.10;99.90;;;;;;5133625;28;20358;-41
2023/01/02 01:12:03;;;;;;;;;;;11.10;99.90;;;;;;5132900;28;20005;-41
2023/01/02 01:14:28;;;;;;;;;;;11.10;99.90;;;;;;5133572;28;20044;-40
2023/01/02 01:16:53;;;;;;;;;;;11.10;99.90;;;;;;5133654;28;20365;-40
2023/01/02 01:19:19;;;;;;;;;;;11.20;99.90;;;;;;5120039;28;19908;-41
2023/01/02 01:21:44;;;;;;;;;;;11.10;99.90;;;;;;5125540;28;19918;-41
2023/01/02 01:24:10;;;;;;;;;;;11.20;99.90;;;;;;5133480;28;19911;-41
2023/01/02 01:26:36;;;;;;;;;;;11.20;99.90;;;;;;5142480;27;19911;-41
2023/01/02 01:29:01;;;;;;;;;;;11.20;99.90;;;;;;5153855;27;20277;-40
2023/01/02 01:31:27;;;;;;;;;;;11.20;99.90;;;;;;5154143;27;19914;-41
2023/01/02 01:33:52;;;;;;;;;;;11.20;99.90;;;;;;5153489;27;20018;-40
2023/01/02 01:36:19;;;;;;;;;;;11.30;99.90;;;;;;5154079;27;19907;-42
2023/01/02 01:38:45;;;;;;;;;;;11.30;99.90;;;;;;5154105;27;19907;-41
2023/01/02 01:41:12;;;;;;;;;;;11.30;99.90;;;;;;5153245;27;20001;-41
2023/01/02 01:43:42;;;;;;;;;;;11.30;99.90;;;;;;5154018;27;19915;-40
2023/01/02 01:46:20;;;;;;;;;;;11.30;99.90;;;;;;5143051;27;20321;-41
2023/01/02 01:48:47;;;;;;;;;;;11.30;99.90;;;;;;5132632;28;19907;-42
2023/01/02 01:51:13;;;;;;;;;;;11.40;99.90;;;;;;5133418;28;19908;-40
2023/01/02 01:53:39;;;;;;;;;;;11.40;99.90;;;;;;5133022;27;19928;-41
2023/01/02 01:56:05;;;;;;;;;;;11.40;99.90;;;;;;5132592;28;19951;-41
2023/01/02 01:58:34;;;;;;;;;;;11.40;99.90;;;;;;5135107;27;19912;-41
2023/01/02 02:01:00;;;;;;;;;;;11.40;99.90;;;;;;5136317;27;19916;-40
2023/01/02 02:03:27;;;;;;;;;;;11.40;99.90;;;;;;5136961;27;19920;-41
2023/01/02 02:05:53;;;;;;;;;;;11.40;99.90;;;;;;5127116;27;19924;-41
2023/01/02 02:08:21;;;;;;;;;;;11.40;99.90;;;;;;5136053;27;19914;-40
2023/01/02 02:10:47;;;;;;;;;;;11.40;99.90;;;;;;5136954;27;20002;-41
2023/01/02 02:13:13;;;;;;;;;;;11.40;99.90;;;;;;5136823;27;20379;-41
2023/01/02 02:15:42;;;;;;;;;;;11.40;99.90;;;;;;5135949;27;19995;-41
2023/01/02 02:18:26;;;;;;;;;;;11.50;99.90;;;;;;5136641;27;20427;-41
2023/01/02 02:20:51;;;;;;;;;;;11.40;99.90;;;;;;5136738;27;19907;-42
2023/01/02 02:23:26;;;;;;;;;;;11.40;99.90;;;;;;5135810;27;19930;-40
2023/01/02 02:26:04;;;;;;;;;;;11.40;99.90;;;;;;5136596;27;19915;-40
2023/01/02 02:28:48;;;;;;;;;;;11.40;99.90;;;;;;5136504;27;20389;-41
2023/01/02 02:31:19;;;;;;;;;;;11.40;99.90;;;;;;5125687;27;20066;-41
2023/01/02 02:33:48;;;;;;;;;;;11.40;99.90;;;;;;5115936;28;20354;-41
2023/01/02 02:36:18;;;;;;;;;;;11.40;99.90;;;;;;5142303;27;19911;-42
2023/01/02 02:39:02;;;;;;;;;;;11.40;99.90;;;;;;5157181;27;19914;-41
2023/01/02 02:41:33;;;;;;;;;;;11.40;99.90;;;;;;5156860;27;20055;-41
2023/01/02 02:44:04;;;;;;;;;;;11.40;99.90;;;;;;5155712;27;20445;-40
2023/01/02 02:46:33;;;;;;;;;;;11.40;99.90;;;;;;5156862;27;20379;-43
2023/01/02 02:49:04;;;;;;;;;;;11.40;99.90;;;;;;5156944;27;19907;-41
2023/01/02 02:51:38;;;;;;;;;;;11.50;99.90;;;;;;5156042;27;20269;-40
2023/01/02 02:54:15;;;;;;;;;;;11.40;99.90;;;;;;5156501;27;19923;-42
2023/01/02 02:56:41;;;;;;;;;;;11.50;99.90;;;;;;5156848;27;19911;-42
2023/01/02 02:59:07;;;;;;;;;;;11.50;99.90;;;;;;5155817;27;19914;-40
2023/01/02 03:01:34;;;;;;;;;;;11.50;99.90;;;;;;5154777;27;19912;-41
2023/01/02 03:04:00;;;;;;;;;;;11.50;99.90;;;;;;5146580;27;19942;-42
2023/01/02 03:06:25;;;;;;;;;;;11.50;99.90;;;;;;5134531;27;19969;-42
2023/01/02 03:09:09;;;;;;;;;;;11.50;99.90;;;;;;5135920;27;20306;-41
2023/01/02 03:11:57;;;;;;;;;;;11.50;99.90;;;;;;5135020;27;19912;-41
2023/01/02 03:14:40;;;;;;;;;;;11.50;99.90;;;;;;5135259;27;20010;-40
2023/01/02 03:17:16;;;;;;;;;;;11.50;99.90;;;;;;5135668;27;19914;-41
2023/01/02 03:19:43;;;;;;;;;;;11.60;99.90;;;;;;5134840;27;19907;-40
2023/01/02 03:22:13;;;;;;;;;;;11.60;99.90;;;;;;5135463;27;20401;-42
2023/01/02 03:24:39;;;;;;;;;;;11.60;99.90;;;;;;5135341;27;20410;-40
2023/01/02 03:27:08;;;;;;;;;;;11.60;99.90;;;;;;5134538;27;19907;-42
2023/01/02 03:29:37;;;;;;;;;;;11.60;99.90;;;;;;5135306;27;19918;-41
2023/01/02 03:32:04;;;;;;;;;;;11.60;99.90;;;;;;5149661;27;19915;-41
2023/01/02 03:34:31;;;;;;;;;;;11.60;99.90;;;;;;5155127;27;19922;-41
2023/01/02 03:36:59;;;;;;;;;;;11.60;99.90;;;;;;5155856;27;19937;-41
2023/01/02 03:39:27;;;;;;;;;;;11.60;99.90;;;;;;5155047;27;19914;-42
2023/01/02 03:42:02;;;;;;;;;;;11.60;99.90;;;;;;5155725;27;19936;-42
2023/01/02 03:44:30;;;;;;;;;;;11.60;99.90;;;;;;5135565;27;20358;-41
2023/01/02 03:47:22;;;;;;;;;;;11.60;99.90;;;;;;5134228;27;20433;-42
2023/01/02 03:49:50;;;;;;;;;;;11.60;99.90;;;;;;5131673;27;19972;-40
2023/01/02 03:52:16;;;;;;;;;;;11.60;99.90;;;;;;5134508;27;19911;-42
2023/01/02 03:54:41;;;;;;;;;;;11.60;99.90;;;;;;5134194;27;19914;-41
2023/01/02 03:57:07;;;;;;;;;;;11.60;99.90;;;;;;5134754;27;20369;-40
2023/01/02 03:59:41;;;;;;;;;;;11.60;99.90;;;;;;5134866;27;19946;-42
2023/01/02 04:02:10;;;;;;;;;;;11.60;99.90;;;;;;5148680;27;20366;-42
2023/01/02 04:04:36;;;;;;;;;;;11.60;99.90;;;;;;5155160;27;19915;-41
2023/01/02 04:07:03;;;;;;;;;;;11.60;99.90;;;;;;5155348;27;19914;-41
2023/01/02 04:09:31;;;;;;;;;;;11.60;99.90;;;;;;5152213;27;19963;-40
2023/01/02 04:12:01;;;;;;;;;;;11.60;99.90;;;;;;5154938;27;20048;-41
2023/01/02 04:14:29;;;;;;;;;;;11.60;99.90;;;;;;5154304;27;19915;-42
2023/01/02 04:16:57;;;;;;;;;;;11.60;99.90;;;;;;5155174;27;19907;-42
2023/01/02 04:19:24;;;;;;;;;;;11.60;99.90;;;;;;5154988;27;19908;-43
2023/01/02 04:21:51;;;;;;;;;;;11.70;99.90;;;;;;5153472;27;19911;-42
2023/01/02 04:24:19;;;;;;;;;;;11.70;99.90;;;;;;5154935;27;20066;-42
2023/01/02 04:26:50;;;;;;;;;;;11.60;99.90;;;;;;5154886;27;20157;-41
2023/01/02 04:29:16;;;;;;;;;;;11.70;99.90;;;;;;5154052;27;20402;-40
2023/01/02 04:31:44;;;;;;;;;;;11.70;99.90;;;;;;5141748;27;19915;-42
2023/01/02 04:34:11;;;;;;;;;;;11.70;99.90;;;;;;5134140;27;19911;-42
2023/01/02 04:36:38;;;;;;;;;;;11.70;99.90;;;;;;5133379;27;19908;-41
2023/01/02 04:39:03;;;;;;;;;;;11.80;99.90;;;;;;5134074;27;20329;-40
2023/01/02 04:41:29;;;;;;;;;;;11.80;99.90;;;;;;5133988;27;19907;-41
2023/01/02 04:43:55;;;;;;;;;;;11.80;99.90;;;;;;5133495;27;20362;-41
2023/01/02 04:46:21;;;;;;;;;;;11.80;99.90;;;;;;5133937;27;19964;-41
2023/01/02 04:48:47;;;;;;;;;;;11.80;99.90;;;;;;5133882;27;20332;-41
2023/01/02 04:51:12;;;;;;;;;;;11.90;99.90;;;;;;5133038;27;19950;-41
2023/01/02 04:53:38;;;;;;;;;;;11.90;99.90;;;;;;5133730;27;20021;-42
2023/01/02 04:56:03;;;;;;;;;;;11.90;99.90;;;;;;5133855;27;19915;-41
2023/01/02 04:58:29;;;;;;;;;;;11.90;99.90;;;;;;5132941;27;19912;-41
2023/01/02 05:00:54;;;;;;;;;;;11.90;99.90;;;;;;5138251;27;19911;-43
2023/01/02 05:03:20;;;;;;;;;;;12.00;99.90;;;;;;5154315;27;20349;-41
2023/01/02 05:05:45;;;;;;;;;;;12.00;99.90;;;;;;5135833;27;20357;-40
2023/01/02 05:08:11;;;;;;;;;;;12.00;99.90;;;;;;5133794;28;19918;-40
2023/01/02 05:10:36;;;;;;;;;;;12.00;99.90;;;;;;5133680;28;19916;-41
2023/01/02 05:13:02;;;;;;;;;;;12.00;99.90;;;;;;5132943;28;20002;-41
2023/01/02 05:15:27;;;;;;;;;;;12.00;99.90;;;;;;5133561;28;20410;-40
2023/01/02 05:17:53;;;;;;;;;;;12.00;99.90;;;;;;5132804;28;19994;-40
2023/01/02 05:20:18;;;;;;;;;;;12.00;99.90;;;;;;5133549;28;19960;-41
2023/01/02 05:25:32;;;;;;;;;;;12.10;99.90;;;;;;5132809;28;19923;-41
2023/01/02 05:27:57;;;;;;;;;;;12.10;99.90;;;;;;5133341;28;20011;-42
2023/01/02 05:30:23;;;;;;;;;;;12.10;99.90;;;;;;5133498;27;20393;-42
2023/01/02 05:32:49;;;;;;;;;;;12.10;99.90;;;;;;5154245;27;19930;-42
2023/01/02 05:35:14;;;;;;;;;;;12.10;99.90;;;;;;5157934;27;19933;-40
2023/01/02 05:37:40;;;;;;;;;;;12.10;99.90;;;;;;5158337;27;19907;-41
2023/01/02 05:40:05;;;;;;;;;;;12.10;99.90;;;;;;5157296;27;20293;-41
2023/01/02 05:42:31;;;;;;;;;;;12.10;99.90;;;;;;5157915;27;19907;-41
2023/01/02 05:44:56;;;;;;;;;;;12.10;99.90;;;;;;5158031;27;19919;-41
2023/01/02 05:47:22;;;;;;;;;;;12.10;99.90;;;;;;5157203;27;19907;-40
2023/01/02 05:49:47;;;;;;;;;;;12.10;99.90;;;;;;5158105;27;20277;-41
2023/01/02 05:52:13;;;;;;;;;;;12.20;99.90;;;;;;5157686;27;19942;-40
2023/01/02 05:54:38;;;;;;;;;;;12.20;99.90;;;;;;5157265;27;19911;-41
2023/01/02 05:57:03;;;;;;;;;;;12.10;99.90;;;;;;5157883;27;19907;-41
2023/01/02 05:59:29;;;;;;;;;;;12.20;99.90;;;;;;5157837;27;19971;-40
2023/01/02 06:01:54;;;;;;;;;;;12.20;99.90;;;;;;5137641;27;19911;-41
2023/01/02 06:04:20;;;;;;;;;;;12.20;99.90;;;;;;5136908;27;19911;-41
2023/01/02 06:06:46;;;;;;;;;;;12.20;99.90;;;;;;5137092;27;19952;-41
2023/01/02 06:09:12;;;;;;;;;;;12.20;99.90;;;;;;5136226;27;19908;-40
2023/01/02 06:11:38;;;;;;;;;;;12.20;99.90;;;;;;5136854;27;19911;-41
2023/01/02 06:14:03;;;;;;;;;;;12.20;99.90;;;;;;5136168;27;19971;-40
2023/01/02 06:16:29;;;;;;;;;;;12.20;99.90;;;;;;5136751;27;20357;-41
2023/01/02 06:18:54;;;;;;;;;;;12.20;99.90;;;;;;5136802;27;20344;-40
2023/01/02 06:21:20;;;;;;;;;;;12.20;99.90;;;;;;5135952;27;20329;-40
2023/01/02 06:23:46;;;;;;;;;;;12.20;99.90;;;;;;5136582;27;19960;-40
2023/01/02 06:26:12;;;;;;;;;;;12.20;99.90;;;;;;5136595;27;19915;-40
2023/01/02 06:28:38;;;;;;;;;;;12.30;99.90;;;;;;5135829;27;19998;-41
2023/01/02 06:31:05;;;;;;;;;;;12.30;99.90;;;;;;5128005;27;19935;-41
2023/01/02 06:33:31;;;;;;;;;;;12.30;99.90;;;;;;5125190;27;19923;-42
2023/01/02 06:35:57;;;;;;;;;;;12.30;99.90;;;;;;5114669;28;20011;-41
2023/01/02 06:38:23;;;;;;;;;;;12.30;99.90;;;;;;5115657;28;20012;-42
2023/01/02 06:40:52;;;;;;;;;;;12.30;99.90;;;;;;5115788;28;20350;-41
2023/01/02 06:43:18;;;;;;;;;;;12.20;99.90;;;;;;5114764;28;19919;-42
2023/01/02 06:45:43;;;;;;;;;;;12.20;99.90;;;;;;5113689;28;19915;-41
2023/01/02 06:48:08;;;;;;;;;;;12.30;99.90;;;;;;5114700;28;20037;-39
2023/01/02 06:50:35;;;;;;;;;;;12.30;99.90;;;;;;5120898;27;20381;-40
2023/01/02 06:53:00;;;;;;;;;;;12.30;99.90;;;;;;5156588;27;20270;-39
2023/01/02 06:55:25;;;;;;;;;;;12.30;99.90;;;;;;5156716;27;20396;-41
2023/01/02 06:57:51;;;;;;;;;;;12.30;99.90;;;;;;5147416;27;20010;-41
2023/01/02 07:00:17;;;;;;;;;;;12.30;99.90;;;;;;5135815;27;19907;-42
2023/01/02 07:02:42;;;;;;;;;;;12.30;99.90;;;;;;5135747;27;19960;-40
2023/01/02 07:05:09;;;;;;;;;;;12.30;99.90;;;;;;5135216;27;19915;-40
2023/01/02 07:07:35;;;;;;;;;;;12.30;99.90;;;;;;5135874;27;19907;-39
2023/01/02 07:10:01;;;;;;;;;;;12.40;99.90;;;;;;5135792;27;20289;-41
2023/01/02 07:12:26;;;;;;;;;;;12.40;99.90;;;;;;5135059;27;19907;-40
2023/01/02 07:14:52;;;;;;;;;;;12.40;99.90;;;;;;5135769;27;20285;-41
2023/01/02 07:17:17;;;;;;;;;;;12.30;99.90;;;;;;5135001;27;19958;-38
2023/01/02 07:19:42;;;;;;;;;;;12.30;99.90;;;;;;5135590;27;20311;-40
2023/01/02 07:22:08;;;;;;;;;;;12.30;99.90;;;;;;5150317;27;19973;-40
2023/01/02 07:24:33;;;;;;;;;;;12.30;99.90;;;;;;5155369;27;19922;-40
2023/01/02 07:26:59;;;;;;;;;;;12.30;99.90;;;;;;5156159;27;19950;-39
2023/01/02 07:29:24;;;;;;;;;;;12.30;99.90;;;;;;5155067;27;19918;-38
2023/01/02 07:31:50;;;;;;;;;;;12.20;99.90;;;;;;5154446;27;20326;-37
2023/01/02 07:34:16;;;;;;;;;;;12.10;99.90;;;;;;5142878;27;19908;-38
2023/01/02 07:36:41;;;;;;;;;;;12.00;99.90;;;;;;5134447;27;20089;-38
2023/01/02 07:39:07;;;;;;;;;;;11.90;99.90;;;;;;5134361;27;19914;-38
2023/01/02 07:41:32;;;;;;;;;;;11.70;99.90;;;;;;5135040;27;20017;-38
2023/01/02 07:43:58;;;;;;;;;;;11.60;99.90;;;;;;5135016;27;20351;-40
2023/01/02 07:46:23;;;;;;;;;;;11.50;99.90;;;;;;5134214;27;19920;-39
2023/01/02 07:48:49;;;;;;;;;;;11.40;99.90;;;;;;5135108;27;19907;-38
2023/01/02 07:51:15;;;;;;;;;;;11.20;99.90;;;;;;5134376;27;19957;-38
2023/01/02 07:53:40;;;;;;;;;;;11.10;99.90;;;;;;5153576;27;20012;-40
2023/01/02 07:56:06;;;;;;;;;;;11.00;99.90;;;;;;5155384;27;19915;-38
2023/01/02 07:58:32;;;;;;;;;;;10.90;99.90;;;;;;5155250;27;20361;-40
2023/01/02 08:00:57;;;;;;;;;;;10.80;99.90;;;;;;5135372;27;19936;-39
2023/01/02 08:03:23;;;;;;;;;;;10.80;99.90;;;;;;5129925;27;19919;-39
2023/01/02 08:05:49;;;;;;;;;;;10.80;99.90;;;;;;5124272;27;19920;-39
2023/01/02 08:08:14;;;;;;;;;;;10.60;99.90;;;;;;5140089;27;19915;-38
2023/01/02 08:10:40;;;;;;;;;;;10.60;99.90;;;;;;5145176;27;19914;-39
2023/01/02 08:13:06;;;;;;;;;;;10.60;99.90;;;;;;5135731;27;19907;-39
2023/01/02 08:15:31;;;;;;;;;;;10.50;99.90;;;;;;5135263;27;19914;-38
2023/01/02 08:17:57;;;;;;;;;;;10.50;99.90;;;;;;5138373;27;19908;-38
2023/01/02 08:20:24;;;;;;;;;;;10.40;99.90;;;;;;5134529;27;19918;-39
2023/01/02 08:22:49;;;;;;;;;;;10.40;99.90;;;;;;5137568;27;19949;-39
2023/01/02 08:25:15;;;;;;;;;;;10.30;99.90;;;;;;5134641;27;19962;-38
2023/01/02 08:27:41;;;;;;;;;;;10.30;99.90;;;;;;5137723;27;20401;-42
2023/01/02 08:30:06;;;;;;;;;;;10.20;99.90;;;;;;5133465;27;19919;-40
2023/01/02 08:32:36;;;;;;;;;;;10.10;99.90;;;;;;5140050;27;19916;-43
2023/01/02 08:35:02;;;;;;;;;;;10.10;99.90;;;;;;5133396;27;19907;-39
2023/01/02 08:37:27;;;;;;;;;;;10.00;99.90;;;;;;5135467;27;19922;-38
2023/01/02 08:39:52;;;;;;;;;;;9.90;99.90;;;;;;5136902;27;19917;-39
2023/01/02 08:42:18;;;;;;;;;;;9.90;99.90;;;;;;5133329;27;19918;-40
2023/01/02 08:44:43;;;;;;;;;;;9.80;99.90;;;;;;5134249;27;20326;-38
2023/01/02 08:47:09;;;;;;;;;;;9.80;99.90;;;;;;5124312;27;19947;-39
2023/01/02 08:49:34;;;;;;;;;;;9.70;99.90;;;;;;5127146;27;19957;-40
2023/01/02 08:52:00;;;;;;;;;;;9.70;99.90;;;;;;5129553;27;19911;-38
2023/01/02 08:54:25;;;;;;;;;;;9.70;99.90;;;;;;5134304;27;19934;-39
2023/01/02 08:56:51;;;;;;;;;;;9.60;99.90;;;;;;5136844;27;19908;-39
2023/01/02 08:59:17;;;;;;;;;;;9.60;99.90;;;;;;5136681;27;19907;-40
2023/01/02 09:01:42;;;;;;;;;;;9.60;99.90;;;;;;5129664;27;19998;-38
2023/01/02 09:04:08;;;;;;;;;;;9.60;99.90;;;;;;5131016;27;19957;-39
2023/01/02 09:06:35;;;;;;;;;;;9.60;99.90;;;;;;5132601;27;20361;-39
2023/01/02 09:09:01;;;;;;;;;;;9.50;99.90;;;;;;5138044;27;19922;-39
2023/01/02 09:11:31;;;;;;;;;;;9.50;99.90;;;;;;5143140;27;19934;-39
2023/01/02 09:13:58;;;;;;;;;;;9.50;99.90;;;;;;5141688;27;19947;-40
2023/01/02 09:16:23;;;;;;;;;;;9.40;99.90;;;;;;5133583;28;19907;-39
2023/01/02 09:18:49;;;;;;;;;;;9.30;99.90;;;;;;5132786;28;19915;-39
2023/01/02 09:21:14;;;;;;;;;;;9.30;99.90;;;;;;5133413;28;20350;-40
2023/01/02 09:23:40;;;;;;;;;;;9.30;99.90;;;;;;5120073;27;19912;-39
2023/01/02 09:26:06;;;;;;;;;;;9.30;99.90;;;;;;5119078;28;20071;-41
2023/01/02 09:28:32;;;;;;;;;;;9.30;99.90;;;;;;5112840;28;20365;-39
2023/01/02 09:30:58;;;;;;;;;;;9.30;99.90;;;;;;5112177;28;19953;-40
2023/01/02 09:33:23;;;;;;;;;;;9.30;99.90;;;;;;5117953;28;19912;-39
2023/01/02 09:35:49;;;;;;;;;;;9.30;99.90;;;;;;5126423;28;19996;-40
2023/01/02 09:38:14;;;;;;;;;;;9.20;99.90;;;;;;5112006;28;20390;-40
2023/01/02 09:40:44;;;;;;;;;;;9.30;99.90;;;;;;5113133;28;19962;-40
2023/01/02 09:43:10;;;;;;;;;;;9.20;99.90;;;;;;5112979;28;19998;-38
2023/01/02 09:45:36;;;;;;;;;;;9.20;99.90;;;;;;5111770;28;20006;-40
2023/01/02 09:48:02;;;;;;;;;;;9.20;99.90;;;;;;5112805;28;19973;-40
2023/01/02 09:50:29;;;;;;;;;;;9.20;99.90;;;;;;5113385;28;20357;-41
2023/01/02 09:52:56;;;;;;;;;;;9.20;99.90;;;;;;5119426;27;19927;-41
2023/01/02 09:55:43;;;;;;;;;;;9.30;99.90;;;;;;5126830;28;20415;-40
2023/01/02 09:58:13;;;;;;;;;;;9.20;99.90;;;;;;5133095;28;19907;-39
2023/01/02 10:00:39;;;;;;;;;;;9.20;99.90;;;;;;5131951;28;19912;-39
2023/01/02 10:03:19;;;;;;;;;;;9.30;99.90;;;;;;5131672;28;19952;-41
2023/01/02 10:06:04;;;;;;;;;;;9.30;99.90;;;;;;5133957;28;19921;-40
2023/01/02 10:08:30;;;;;;;;;;;9.30;99.90;;;;;;5133915;28;19907;-39
2023/01/02 10:11:12;;;;;;;;;;;9.30;99.90;;;;;;5133825;28;20394;-39
2023/01/02 10:13:45;;;;;;;;;;;9.40;99.90;;;;;;5132944;28;19907;-42
2023/01/02 10:16:15;;;;;;;;;;;9.40;99.90;;;;;;5133846;28;20002;-41
2023/01/02 10:18:43;;;;;;;;;;;9.40;99.90;;;;;;5132951;27;20368;-40
2023/01/02 10:21:17;;;;;;;;;;;9.40;99.90;;;;;;5136447;27;19973;-41
2023/01/02 10:24:00;;;;;;;;;;;9.40;99.90;;;;;;5136375;27;19911;-41
2023/01/02 10:26:32;;;;;;;;;;;9.40;99.90;;;;;;5136742;27;19915;-41
2023/01/02 10:29:09;;;;;;;;;;;9.40;99.90;;;;;;5136026;27;19911;-42
2023/01/02 10:31:45;;;;;;;;;;;9.40;99.90;;;;;;5136557;27;19998;-40
2023/01/02 10:34:22;;;;;;;;;;;9.40;99.90;;;;;;5136300;27;19919;-44
2023/01/02 10:36:48;;;;;;;;;;;9.40;99.90;;;;;;5136416;27;19990;-41
2023/01/02 10:39:16;;;;;;;;;;;9.40;99.90;;;;;;5136443;27;20425;-40
2023/01/02 10:41:46;;;;;;;;;;;9.40;99.90;;;;;;5135535;27;19934;-41
2023/01/02 10:44:19;;;;;;;;;;;9.30;99.90;;;;;;5136356;27;19908;-40
2023/01/02 10:46:45;;;;;;;;;;;9.30;99.90;;;;;;5136214;27;19911;-40
2023/01/02 10:49:10;;;;;;;;;;;9.30;99.90;;;;;;5135963;27;20269;-42
2023/01/02 10:51:37;;;;;;;;;;;9.30;99.90;;;;;;5137280;27;20405;-39
2023/01/02 10:54:04;;;;;;;;;;;9.30;99.90;;;;;;5137039;27;19972;-42
2023/01/02 10:56:31;;;;;;;;;;;9.30;99.90;;;;;;5135674;27;20580;-39
2023/01/02 10:58:56;;;;;;;;;;;9.30;99.90;;;;;;5135886;27;19908;-42
2023/01/02 11:01:22;;;;;;;;;;;9.30;99.90;;;;;;5131972;27;20029;-40
2023/01/02 11:04:08;;;;;;;;;;;9.30;99.90;;;;;;5131361;27;20346;-41
2023/01/02 11:06:37;;;;;;;;;;;9.30;99.90;;;;;;5144705;27;20373;-40
2023/01/02 11:09:15;;;;;;;;;;;9.40;99.90;;;;;;5135902;27;20009;-40
2023/01/02 11:11:47;;;;;;;;;;;9.40;99.90;;;;;;5134987;27;19907;-40
2023/01/02 11:14:13;;;;;;;;;;;9.50;99.90;;;;;;5153712;27;19922;-41
2023/01/02 11:16:39;;;;;;;;;;;9.50;99.90;;;;;;5155701;27;19911;-43
2023/01/02 11:19:06;;;;;;;;;;;9.50;99.90;;;;;;5156347;27;20301;-40
2023/01/02 11:21:37;;;;;;;;;;;9.60;99.90;;;;;;5156423;27;20495;-40
2023/01/02 11:24:14;;;;;;;;;;;9.50;99.90;;;;;;5155696;27;20036;-41
2023/01/02 11:26:40;;;;;;;;;;;9.60;99.90;;;;;;5156014;27;19998;-40
2023/01/02 11:29:13;;;;;;;;;;;9.60;99.90;;;;;;5156079;27;19986;-41
2023/01/02 11:31:46;;;;;;;;;;;9.60;99.90;;;;;;5155271;27;19935;-40
2023/01/02 11:34:37;;;;;;;;;;;9.60;99.90;;;;;;5156104;27;19993;-42
2023/01/02 11:37:12;;;;;;;;;;;9.50;99.90;;;;;;5150607;27;20372;-42
2023/01/02 11:39:38;;;;;;;;;;;9.60;99.90;;;;;;5155298;27;19979;-40
2023/01/02 11:45:07;;;;;;;;;;;9.60;99.90;;;;;;5132363;27;19966;-42
2023/01/02 11:47:43;;;;;;;;;;;9.60;99.90;;;;;;5135184;27;19907;-41
2023/01/02 11:50:35;;;;;;;;;;;9.60;99.90;;;;;;5116077;27;19908;-40
2023/01/02 11:53:21;;;;;;;;;;;9.50;99.90;;;;;;5109882;28;19963;-41
2023/01/02 11:55:46;;;;;;;;;;;9.50;99.90;;;;;;5113604;28;19961;-41
2023/01/02 11:58:18;;;;;;;;;;;9.50;99.90;;;;;;5114239;28;19908;-41
2023/01/02 12:00:46;;;;;;;;;;;9.50;99.90;;;;;;5113293;27;20285;-40
2023/01/02 12:03:16;;;;;;;;;;;9.50;99.90;;;;;;5114374;27;20289;-41
2023/01/02 12:05:54;;;;;;;;;;;9.50;99.90;;;;;;5123784;27;19943;-41
2023/01/02 12:08:38;;;;;;;;;;;9.50;99.90;;;;;;5129990;27;20427;-40
2023/01/02 12:11:15;;;;;;;;;;;9.50;99.90;;;;;;5117235;27;20289;-41
2023/01/02 12:13:40;;;;;;;;;;;9.60;99.90;;;;;;5125209;27;20365;-40
2023/01/02 12:16:18;;;;;;;;;;;9.60;99.90;;;;;;5125786;27;19915;-40
2023/01/02 12:18:55;;;;;;;;;;;9.70;99.90;;;;;;5112887;28;19908;-41
2023/01/02 12:21:28;;;;;;;;;;;9.80;99.90;;;;;;5112405;28;20340;-40
2023/01/02 12:24:08;;;;;;;;;;;9.80;99.90;;;;;;5113347;28;20000;-42
2023/01/02 12:26:37;;;;;;;;;;;9.80;99.90;;;;;;5112552;27;19969;-42
2023/01/02 12:29:22;;;;;;;;;;;9.70;99.90;;;;;;5133517;27;19907;-41
2023/01/02 12:31:53;;;;;;;;;;;9.70;99.90;;;;;;5108285;27;19991;-40
2023/01/02 12:34:31;;;;;;;;;;;9.60;99.90;;;;;;5112423;28;19961;-42
2023/01/02 12:36:57;;;;;;;;;;;9.60;99.90;;;;;;5112782;28;19919;-41
2023/01/02 12:39:37;;;;;;;;;;;9.60;99.90;;;;;;5121149;27;20369;-42
2023/01/02 12:42:22;;;;;;;;;;;9.60;99.90;;;;;;5139937;27;19911;-42
2023/01/02 12:44:49;;;;;;;;;;;9.60;99.90;;;;;;5121167;27;19922;-40
2023/01/02 12:47:18;;;;;;;;;;;9.60;99.90;;;;;;5125309;27;20274;-41
2023/01/02 12:49:43;;;;;;;;;;;9.70;99.90;;;;;;5117778;27;20369;-41
2023/01/02 12:52:09;;;;;;;;;;;9.70;99.90;;;;;;5123666;27;20007;-41
2023/01/02 12:54:37;;;;;;;;;;;9.70;99.90;;;;;;5130024;27;19915;-42
2023/01/02 12:57:14;;;;;;;;;;;9.70;99.90;;;;;;5132431;27;19907;-41
2023/01/02 12:59:46;;;;;;;;;;;9.70;99.90;;;;;;5136731;27;19916;-42
2023/01/02 13:02:18;;;;;;;;;;;9.60;99.90;;;;;;5143711;27;19911;-43
2023/01/02 13:04:47;;;;;;;;;;;9.70;99.90;;;;;;5132544;27;19917;-40
2023/01/02 13:07:13;;;;;;;;;;;9.70;99.90;;;;;;5132940;28;19907;-40
2023/01/02 13:09:39;;;;;;;;;;;9.70;99.90;;;;;;5132176;27;19926;-40
2023/01/02 13:12:23;;;;;;;;;;;9.70;99.90;;;;;;5136484;27;20353;-40
2023/01/02 13:14:50;;;;;;;;;;;9.70;99.90;;;;;;5104076;28;19908;-40
2023/01/02 13:17:31;;;;;;;;;;;9.70;99.90;;;;;;5128635;27;19911;-40
2023/01/02 13:20:10;;;;;;;;;;;9.80;99.90;;;;;;5154039;27;20361;-42
2023/01/02 13:22:54;;;;;;;;;;;9.80;99.90;;;;;;5112079;28;19911;-43
2023/01/02 13:25:20;;;;;;;;;;;9.80;99.90;;;;;;5111435;28;19920;-40
2023/01/02 13:27:47;;;;;;;;;;;9.80;99.90;;;;;;5111788;28;19907;-41
2023/01/02 13:30:31;;;;;;;;;;;9.80;99.90;;;;;;5111737;28;19908;-42
2023/01/02 13:32:57;;;;;;;;;;;9.80;99.90;;;;;;5111870;28;19916;-41
2023/01/02 13:35:23;;;;;;;;;;;9.80;99.90;;;;;;5137627;27;20264;-41
2023/01/02 13:37:49;;;;;;;;;;;9.80;99.90;;;;;;5132450;28;19908;-41
2023/01/02 13:40:26;;;;;;;;;;;9.80;99.90;;;;;;5140610;27;20510;-42
2023/01/02 13:42:58;;;;;;;;;;;9.70;99.90;;;;;;5135318;27;19962;-41
2023/01/02 13:45:24;;;;;;;;;;;9.80;99.90;;;;;;5132294;28;19915;-43
2023/01/02 13:47:51;;;;;;;;;;;9.80;99.90;;;;;;5132274;28;20002;-42
2023/01/02 13:50:20;;;;;;;;;;;9.80;99.90;;;;;;5133383;28;19911;-42
2023/01/02 13:53:04;;;;;;;;;;;9.80;99.90;;;;;;5132238;27;19919;-41
2023/01/02 13:55:32;;;;;;;;;;;9.80;99.90;;;;;;5136777;27;19968;-41
2023/01/02 13:58:19;;;;;;;;;;;9.80;99.90;;;;;;5136889;27;19911;-40
2023/01/02 14:00:45;;;;;;;;;;;9.80;99.90;;;;;;5136914;27;19911;-40
2023/01/02 14:03:20;;;;;;;;;;;9.80;99.90;;;;;;5135315;27;20290;-41
2023/01/02 14:05:58;;;;;;;;;;;9.80;99.90;;;;;;5136164;27;19915;-41
2023/01/02 14:08:23;;;;;;;;;;;9.80;99.90;;;;;;5137317;27;19914;-42
2023/01/02 14:10:50;;;;;;;;;;;9.90;99.90;;;;;;5136553;27;19911;-41
2023/01/02 14:13:19;;;;;;;;;;;9.80;99.90;;;;;;5136143;27;19918;-41
2023/01/02 14:16:04;;;;;;;;;;;9.80;99.90;;;;;;5136739;27;19911;-42
2023/01/02 14:18:30;;;;;;;;;;;9.80;99.90;;;;;;5136897;27;19951;-42
2023/01/02 14:20:55;;;;;;;;;;;9.80;99.90;;;;;;5135986;27;19943;-42
2023/01/02 14:23:29;;;;;;;;;;;9.80;99.90;;;;;;5136682;27;19918;-42
2023/01/02 14:25:55;;;;;;;;;;;9.80;99.90;;;;;;5136206;27;19966;-42
2023/01/02 14:28:27;;;;;;;;;;;9.80;99.90;;;;;;5136307;27;19946;-40
2023/01/02 14:30:54;;;;;;;;;;;9.80;99.90;;;;;;5115565;28;19908;-43
2023/01/02 14:33:27;;;;;;;;;;;9.80;99.90;;;;;;5115896;28;19914;-42
2023/01/02 14:35:54;;;;;;;;;;;9.80;99.90;;;;;;5128386;27;19916;-41